sensor_id;sensor_type;location;lat;lon;timestamp;P1;durP1;ratioP1;P2;durP2;ratioP2
5539;SDS011;2792;52.452;9.752;2022-07-18T00:00:22;5.07;;;2.13;;
5539;SDS011;2792;52.452;9.752;2022-07-18T00:02:48;4.80;;;2.57;;
5539;SDS011;2792;52.452;9.752;2022-07-18T00:05:15;4.60;;;1.73;;
5539;SDS011;2792;52.452;9.752;2022-07-18T00:07:41;5.23;;;2.60;;
5539;SDS011;2792;52.452;9.752;2022-07-18T00:10:08;5.43;;;2.57;;
5539;SDS011;2792;52.452;9.752;2022-07-18T00:12:36;3.27;;;2.27;;
5539;SDS011;2792;52.452;9.752;2022-07-18T00:15:03;3.20;;;2.13;;
5539;SDS011;2792;52.452;9.752;2022-07-18T00:17:31;3.07;;;2.40;;
5539;SDS011;2792;52.452;9.752;2022-07-18T00:19:57;5.40;;;2.23;;
5539;SDS011;2792;52.452;9.752;2022-07-18T00:22:24;3.63;;;2.30;;
5539;SDS011;2792;52.452;9.752;2022-07-18T00:24:51;5.67;;;3.57;;
5539;SDS011;2792;52.452;9.752;2022-07-18T00:27:17;7.00;;;2.60;;
5539;SDS011;2792;52.452;9.752;2022-07-18T00:29:45;5.17;;;1.97;;
5539;SDS011;2792;52.452;9.752;2022-07-18T00:32:12;4.30;;;2.20;;
5539;SDS011;2792;52.452;9.752;2022-07-18T00:34:38;5.17;;;2.33;;
5539;SDS011;2792;52.452;9.752;2022-07-18T00:37:05;3.00;;;2.07;;
5539;SDS011;2792;52.452;9.752;2022-07-18T00:39:31;4.90;;;2.57;;
5539;SDS011;2792;52.452;9.752;2022-07-18T00:41:58;4.53;;;2.40;;
5539;SDS011;2792;52.452;9.752;2022-07-18T00:44:25;2.53;;;1.97;;
5539;SDS011;2792;52.452;9.752;2022-07-18T00:46:55;5.43;;;2.53;;
5539;SDS011;2792;52.452;9.752;2022-07-18T00:49:23;2.30;;;2.10;;
5539;SDS011;2792;52.452;9.752;2022-07-18T00:51:50;3.90;;;2.23;;
5539;SDS011;2792;52.452;9.752;2022-07-18T00:54:16;4.40;;;2.97;;
5539;SDS011;2792;52.452;9.752;2022-07-18T00:56:44;4.27;;;2.50;;
5539;SDS011;2792;52.452;9.752;2022-07-18T00:59:11;6.90;;;2.40;;
5539;SDS011;2792;52.452;9.752;2022-07-18T01:01:38;6.13;;;2.30;;
5539;SDS011;2792;52.452;9.752;2022-07-18T01:04:16;3.83;;;2.67;;
5539;SDS011;2792;52.452;9.752;2022-07-18T01:06:45;6.97;;;2.77;;
5539;SDS011;2792;52.452;9.752;2022-07-18T01:09:12;3.53;;;2.50;;
5539;SDS011;2792;52.452;9.752;2022-07-18T01:11:39;3.07;;;2.53;;
5539;SDS011;2792;52.452;9.752;2022-07-18T01:14:06;5.67;;;2.70;;
5539;SDS011;2792;52.452;9.752;2022-07-18T01:16:33;4.77;;;2.53;;
5539;SDS011;2792;52.452;9.752;2022-07-18T01:19:01;2.97;;;2.30;;
5539;SDS011;2792;52.452;9.752;2022-07-18T01:21:29;5.10;;;2.50;;
5539;SDS011;2792;52.452;9.752;2022-07-18T01:23:56;2.87;;;2.50;;
5539;SDS011;2792;52.452;9.752;2022-07-18T01:26:23;4.13;;;2.70;;
5539;SDS011;2792;52.452;9.752;2022-07-18T01:28:49;6.37;;;2.77;;
5539;SDS011;2792;52.452;9.752;2022-07-18T01:31:16;3.90;;;2.50;;
5539;SDS011;2792;52.452;9.752;2022-07-18T01:33:43;6.50;;;2.40;;
5539;SDS011;2792;52.452;9.752;2022-07-18T01:36:09;2.93;;;2.03;;
5539;SDS011;2792;52.452;9.752;2022-07-18T01:38:37;6.20;;;2.50;;
5539;SDS011;2792;52.452;9.752;2022-07-18T01:41:04;3.33;;;2.43;;
5539;SDS011;2792;52.452;9.752;2022-07-18T01:43:31;6.73;;;2.63;;
5539;SDS011;2792;52.452;9.752;2022-07-18T01:45:59;6.60;;;2.80;;
5539;SDS011;2792;52.452;9.752;2022-07-18T01:48:26;5.73;;;2.00;;
5539;SDS011;2792;52.452;9.752;2022-07-18T01:50:52;4.83;;;2.27;;
5539;SDS011;2792;52.452;9.752;2022-07-18T01:53:19;2.90;;;2.10;;
5539;SDS011;2792;52.452;9.752;2022-07-18T01:55:47;3.10;;;2.10;;
5539;SDS011;2792;52.452;9.752;2022-07-18T01:58:14;3.93;;;2.70;;
5539;SDS011;2792;52.452;9.752;2022-07-18T02:00:40;4.67;;;2.93;;
5539;SDS011;2792;52.452;9.752;2022-07-18T02:03:07;5.13;;;2.10;;
5539;SDS011;2792;52.452;9.752;2022-07-18T02:05:34;6.20;;;2.37;;
5539;SDS011;2792;52.452;9.752;2022-07-18T02:08:00;6.13;;;3.10;;
5539;SDS011;2792;52.452;9.752;2022-07-18T02:10:27;6.10;;;2.27;;
5539;SDS011;2792;52.452;9.752;2022-07-18T02:12:55;3.40;;;2.20;;
5539;SDS011;2792;52.452;9.752;2022-07-18T02:15:22;3.00;;;2.33;;
5539;SDS011;2792;52.452;9.752;2022-07-18T02:17:49;4.23;;;2.43;;
5539;SDS011;2792;52.452;9.752;2022-07-18T02:20:15;5.60;;;2.43;;
5539;SDS011;2792;52.452;9.752;2022-07-18T02:22:42;3.30;;;2.30;;
5539;SDS011;2792;52.452;9.752;2022-07-18T02:25:10;5.23;;;2.60;;
5539;SDS011;2792;52.452;9.752;2022-07-18T02:27:37;3.60;;;2.40;;
5539;SDS011;2792;52.452;9.752;2022-07-18T02:30:06;4.13;;;2.40;;
5539;SDS011;2792;52.452;9.752;2022-07-18T02:32:34;4.70;;;2.07;;
5539;SDS011;2792;52.452;9.752;2022-07-18T02:35:02;10.40;;;2.53;;
5539;SDS011;2792;52.452;9.752;2022-07-18T02:37:30;5.40;;;2.40;;
5539;SDS011;2792;52.452;9.752;2022-07-18T02:39:56;3.20;;;2.10;;
5539;SDS011;2792;52.452;9.752;2022-07-18T02:42:23;3.80;;;2.63;;
5539;SDS011;2792;52.452;9.752;2022-07-18T02:44:49;3.10;;;2.23;;
5539;SDS011;2792;52.452;9.752;2022-07-18T02:47:17;3.17;;;2.13;;
5539;SDS011;2792;52.452;9.752;2022-07-18T02:49:44;4.10;;;2.50;;
5539;SDS011;2792;52.452;9.752;2022-07-18T02:52:10;4.40;;;2.40;;
5539;SDS011;2792;52.452;9.752;2022-07-18T02:54:38;5.70;;;2.47;;
5539;SDS011;2792;52.452;9.752;2022-07-18T02:57:05;7.13;;;2.57;;
5539;SDS011;2792;52.452;9.752;2022-07-18T02:59:32;6.33;;;3.40;;
5539;SDS011;2792;52.452;9.752;2022-07-18T03:01:59;5.43;;;2.90;;
5539;SDS011;2792;52.452;9.752;2022-07-18T03:04:27;4.90;;;3.20;;
5539;SDS011;2792;52.452;9.752;2022-07-18T03:06:54;3.40;;;2.67;;
5539;SDS011;2792;52.452;9.752;2022-07-18T03:09:21;3.90;;;2.60;;
5539;SDS011;2792;52.452;9.752;2022-07-18T03:11:47;3.33;;;2.63;;
5539;SDS011;2792;52.452;9.752;2022-07-18T03:14:14;4.13;;;2.80;;
5539;SDS011;2792;52.452;9.752;2022-07-18T03:16:41;5.33;;;3.27;;
5539;SDS011;2792;52.452;9.752;2022-07-18T03:19:07;4.20;;;2.13;;
5539;SDS011;2792;52.452;9.752;2022-07-18T03:21:35;3.10;;;2.47;;
5539;SDS011;2792;52.452;9.752;2022-07-18T03:24:02;3.70;;;2.60;;
5539;SDS011;2792;52.452;9.752;2022-07-18T03:26:29;3.23;;;2.47;;
5539;SDS011;2792;52.452;9.752;2022-07-18T03:28:55;4.57;;;2.53;;
5539;SDS011;2792;52.452;9.752;2022-07-18T03:31:22;6.43;;;2.50;;
5539;SDS011;2792;52.452;9.752;2022-07-18T03:33:49;3.97;;;2.40;;
5539;SDS011;2792;52.452;9.752;2022-07-18T03:36:15;9.90;;;2.90;;
5539;SDS011;2792;52.452;9.752;2022-07-18T03:38:43;7.50;;;2.60;;
5539;SDS011;2792;52.452;9.752;2022-07-18T03:41:10;3.77;;;2.17;;
5539;SDS011;2792;52.452;9.752;2022-07-18T03:43:37;9.63;;;3.30;;
5539;SDS011;2792;52.452;9.752;2022-07-18T03:46:03;4.33;;;2.80;;
5539;SDS011;2792;52.452;9.752;2022-07-18T03:48:31;3.20;;;2.70;;
5539;SDS011;2792;52.452;9.752;2022-07-18T03:50:57;4.93;;;2.67;;
5539;SDS011;2792;52.452;9.752;2022-07-18T03:53:24;5.73;;;2.70;;
5539;SDS011;2792;52.452;9.752;2022-07-18T03:55:52;5.50;;;2.70;;
5539;SDS011;2792;52.452;9.752;2022-07-18T03:58:19;7.67;;;3.13;;
5539;SDS011;2792;52.452;9.752;2022-07-18T04:00:45;4.10;;;2.50;;
5539;SDS011;2792;52.452;9.752;2022-07-18T04:03:12;9.97;;;3.37;;
5539;SDS011;2792;52.452;9.752;2022-07-18T04:05:39;5.33;;;2.83;;
5539;SDS011;2792;52.452;9.752;2022-07-18T04:08:05;6.80;;;2.97;;
5539;SDS011;2792;52.452;9.752;2022-07-18T04:10:32;3.57;;;2.67;;
5539;SDS011;2792;52.452;9.752;2022-07-18T04:13:00;5.27;;;2.43;;
5539;SDS011;2792;52.452;9.752;2022-07-18T04:15:27;2.87;;;2.57;;
5539;SDS011;2792;52.452;9.752;2022-07-18T04:17:53;3.00;;;2.60;;
5539;SDS011;2792;52.452;9.752;2022-07-18T04:20:20;4.20;;;2.57;;
5539;SDS011;2792;52.452;9.752;2022-07-18T04:22:48;5.90;;;3.00;;
5539;SDS011;2792;52.452;9.752;2022-07-18T04:25:17;7.27;;;2.97;;
5539;SDS011;2792;52.452;9.752;2022-07-18T04:27:44;3.40;;;2.60;;
5539;SDS011;2792;52.452;9.752;2022-07-18T04:30:13;7.00;;;2.90;;
5539;SDS011;2792;52.452;9.752;2022-07-18T04:32:40;4.33;;;2.23;;
5539;SDS011;2792;52.452;9.752;2022-07-18T04:35:07;5.30;;;2.70;;
5539;SDS011;2792;52.452;9.752;2022-07-18T04:37:34;3.27;;;2.40;;
5539;SDS011;2792;52.452;9.752;2022-07-18T04:40:01;3.90;;;2.47;;
5539;SDS011;2792;52.452;9.752;2022-07-18T04:42:28;4.60;;;2.57;;
5539;SDS011;2792;52.452;9.752;2022-07-18T04:44:56;3.10;;;2.40;;
5539;SDS011;2792;52.452;9.752;2022-07-18T04:47:24;4.20;;;2.27;;
5539;SDS011;2792;52.452;9.752;2022-07-18T04:49:51;5.17;;;2.57;;
5539;SDS011;2792;52.452;9.752;2022-07-18T04:52:17;2.93;;;2.13;;
5539;SDS011;2792;52.452;9.752;2022-07-18T04:54:44;3.10;;;2.40;;
5539;SDS011;2792;52.452;9.752;2022-07-18T04:57:11;12.93;;;3.53;;
5539;SDS011;2792;52.452;9.752;2022-07-18T04:59:39;3.40;;;2.37;;
5539;SDS011;2792;52.452;9.752;2022-07-18T05:02:06;4.97;;;2.10;;
5539;SDS011;2792;52.452;9.752;2022-07-18T05:04:34;4.40;;;2.13;;
5539;SDS011;2792;52.452;9.752;2022-07-18T05:07:01;5.27;;;2.27;;
5539;SDS011;2792;52.452;9.752;2022-07-18T05:09:27;4.93;;;2.30;;
5539;SDS011;2792;52.452;9.752;2022-07-18T05:11:54;4.87;;;2.43;;
5539;SDS011;2792;52.452;9.752;2022-07-18T05:14:21;6.13;;;1.90;;
5539;SDS011;2792;52.452;9.752;2022-07-18T05:16:48;4.47;;;2.60;;
5539;SDS011;2792;52.452;9.752;2022-07-18T05:19:14;4.57;;;2.37;;
5539;SDS011;2792;52.452;9.752;2022-07-18T05:21:42;3.43;;;1.73;;
5539;SDS011;2792;52.452;9.752;2022-07-18T05:24:09;2.77;;;2.13;;
5539;SDS011;2792;52.452;9.752;2022-07-18T05:26:36;4.40;;;2.30;;
5539;SDS011;2792;52.452;9.752;2022-07-18T05:29:03;6.20;;;2.10;;
5539;SDS011;2792;52.452;9.752;2022-07-18T05:31:29;5.83;;;1.97;;
5539;SDS011;2792;52.452;9.752;2022-07-18T05:33:56;4.00;;;1.77;;
5539;SDS011;2792;52.452;9.752;2022-07-18T05:36:23;3.17;;;1.40;;
5539;SDS011;2792;52.452;9.752;2022-07-18T05:38:51;4.20;;;1.70;;
5539;SDS011;2792;52.452;9.752;2022-07-18T05:41:17;4.17;;;2.10;;
5539;SDS011;2792;52.452;9.752;2022-07-18T05:43:44;4.20;;;1.97;;
5539;SDS011;2792;52.452;9.752;2022-07-18T05:46:10;3.50;;;2.00;;
5539;SDS011;2792;52.452;9.752;2022-07-18T05:48:37;4.30;;;2.20;;
5539;SDS011;2792;52.452;9.752;2022-07-18T05:51:05;4.33;;;2.00;;
5539;SDS011;2792;52.452;9.752;2022-07-18T05:53:32;4.77;;;1.80;;
5539;SDS011;2792;52.452;9.752;2022-07-18T05:56:00;4.37;;;2.20;;
5539;SDS011;2792;52.452;9.752;2022-07-18T05:58:26;4.50;;;2.53;;
5539;SDS011;2792;52.452;9.752;2022-07-18T06:00:53;3.23;;;1.90;;
5539;SDS011;2792;52.452;9.752;2022-07-18T06:03:20;3.70;;;1.90;;
5539;SDS011;2792;52.452;9.752;2022-07-18T06:05:46;5.63;;;2.20;;
5539;SDS011;2792;52.452;9.752;2022-07-18T06:08:13;3.83;;;2.00;;
5539;SDS011;2792;52.452;9.752;2022-07-18T06:10:39;6.43;;;2.33;;
5539;SDS011;2792;52.452;9.752;2022-07-18T06:13:07;5.27;;;2.10;;
5539;SDS011;2792;52.452;9.752;2022-07-18T06:15:34;3.60;;;1.60;;
5539;SDS011;2792;52.452;9.752;2022-07-18T06:18:01;4.27;;;2.07;;
5539;SDS011;2792;52.452;9.752;2022-07-18T06:20:27;4.20;;;2.00;;
5539;SDS011;2792;52.452;9.752;2022-07-18T06:22:54;6.20;;;2.90;;
5539;SDS011;2792;52.452;9.752;2022-07-18T06:25:21;5.17;;;2.40;;
5539;SDS011;2792;52.452;9.752;2022-07-18T06:27:47;3.83;;;1.97;;
5539;SDS011;2792;52.452;9.752;2022-07-18T06:30:15;2.70;;;1.57;;
5539;SDS011;2792;52.452;9.752;2022-07-18T06:32:42;4.83;;;1.93;;
5539;SDS011;2792;52.452;9.752;2022-07-18T06:35:09;2.70;;;1.60;;
5539;SDS011;2792;52.452;9.752;2022-07-18T06:37:36;9.27;;;1.80;;
5539;SDS011;2792;52.452;9.752;2022-07-18T06:40:04;4.27;;;1.60;;
5539;SDS011;2792;52.452;9.752;2022-07-18T06:42:31;3.00;;;1.57;;
5539;SDS011;2792;52.452;9.752;2022-07-18T06:44:57;4.97;;;1.70;;
5539;SDS011;2792;52.452;9.752;2022-07-18T06:47:25;6.20;;;2.20;;
5539;SDS011;2792;52.452;9.752;2022-07-18T06:49:52;3.03;;;1.63;;
5539;SDS011;2792;52.452;9.752;2022-07-18T06:52:19;3.50;;;2.20;;
5539;SDS011;2792;52.452;9.752;2022-07-18T06:54:45;9.93;;;1.90;;
5539;SDS011;2792;52.452;9.752;2022-07-18T06:57:12;7.93;;;1.83;;
5539;SDS011;2792;52.452;9.752;2022-07-18T06:59:38;7.10;;;2.00;;
5539;SDS011;2792;52.452;9.752;2022-07-18T07:02:05;4.00;;;2.07;;
5539;SDS011;2792;52.452;9.752;2022-07-18T07:04:33;17.83;;;1.93;;
5539;SDS011;2792;52.452;9.752;2022-07-18T07:06:59;3.97;;;2.10;;
5539;SDS011;2792;52.452;9.752;2022-07-18T07:09:26;6.40;;;1.83;;
5539;SDS011;2792;52.452;9.752;2022-07-18T07:11:53;2.63;;;2.00;;
5539;SDS011;2792;52.452;9.752;2022-07-18T07:14:19;4.43;;;1.73;;
5539;SDS011;2792;52.452;9.752;2022-07-18T07:16:46;3.10;;;1.77;;
5539;SDS011;2792;52.452;9.752;2022-07-18T07:19:13;5.50;;;2.10;;
5539;SDS011;2792;52.452;9.752;2022-07-18T07:21:41;2.27;;;1.63;;
5539;SDS011;2792;52.452;9.752;2022-07-18T07:24:07;2.57;;;1.63;;
5539;SDS011;2792;52.452;9.752;2022-07-18T07:26:34;4.23;;;2.23;;
5539;SDS011;2792;52.452;9.752;2022-07-18T07:29:01;7.27;;;2.33;;
5539;SDS011;2792;52.452;9.752;2022-07-18T07:31:27;9.10;;;2.23;;
5539;SDS011;2792;52.452;9.752;2022-07-18T07:33:54;3.90;;;1.80;;
5539;SDS011;2792;52.452;9.752;2022-07-18T07:36:20;4.20;;;1.70;;
5539;SDS011;2792;52.452;9.752;2022-07-18T07:38:49;5.57;;;1.93;;
5539;SDS011;2792;52.452;9.752;2022-07-18T07:41:15;3.60;;;1.47;;
5539;SDS011;2792;52.452;9.752;2022-07-18T07:43:42;5.47;;;1.80;;
5539;SDS011;2792;52.452;9.752;2022-07-18T07:46:08;3.00;;;1.90;;
5539;SDS011;2792;52.452;9.752;2022-07-18T07:48:36;3.70;;;1.60;;
5539;SDS011;2792;52.452;9.752;2022-07-18T07:51:03;4.83;;;1.70;;
5539;SDS011;2792;52.452;9.752;2022-07-18T07:53:30;2.63;;;1.63;;
5539;SDS011;2792;52.452;9.752;2022-07-18T07:55:58;2.30;;;1.80;;
5539;SDS011;2792;52.452;9.752;2022-07-18T07:58:24;8.73;;;2.27;;
5539;SDS011;2792;52.452;9.752;2022-07-18T08:00:51;7.23;;;1.83;;
5539;SDS011;2792;52.452;9.752;2022-07-18T08:03:18;4.90;;;1.90;;
5539;SDS011;2792;52.452;9.752;2022-07-18T08:05:45;4.47;;;2.07;;
5539;SDS011;2792;52.452;9.752;2022-07-18T08:08:13;2.60;;;1.63;;
5539;SDS011;2792;52.452;9.752;2022-07-18T08:10:40;5.67;;;1.80;;
5539;SDS011;2792;52.452;9.752;2022-07-18T08:13:08;3.63;;;1.47;;
5539;SDS011;2792;52.452;9.752;2022-07-18T08:15:35;7.70;;;2.00;;
5539;SDS011;2792;52.452;9.752;2022-07-18T08:18:01;6.67;;;2.03;;
5539;SDS011;2792;52.452;9.752;2022-07-18T08:20:28;2.20;;;1.60;;
5539;SDS011;2792;52.452;9.752;2022-07-18T08:22:56;2.80;;;1.77;;
5539;SDS011;2792;52.452;9.752;2022-07-18T08:25:24;3.50;;;1.63;;
5539;SDS011;2792;52.452;9.752;2022-07-18T08:27:51;5.27;;;2.17;;
5539;SDS011;2792;52.452;9.752;2022-07-18T08:30:19;4.57;;;1.50;;
5539;SDS011;2792;52.452;9.752;2022-07-18T08:32:46;5.20;;;2.10;;
5539;SDS011;2792;52.452;9.752;2022-07-18T08:35:13;4.53;;;1.93;;
5539;SDS011;2792;52.452;9.752;2022-07-18T08:37:39;4.93;;;1.50;;
5539;SDS011;2792;52.452;9.752;2022-07-18T08:40:07;3.80;;;1.70;;
5539;SDS011;2792;52.452;9.752;2022-07-18T08:42:34;4.40;;;2.00;;
5539;SDS011;2792;52.452;9.752;2022-07-18T08:45:01;5.20;;;1.70;;
5539;SDS011;2792;52.452;9.752;2022-07-18T08:47:30;2.73;;;1.83;;
5539;SDS011;2792;52.452;9.752;2022-07-18T08:49:57;3.17;;;1.50;;
5539;SDS011;2792;52.452;9.752;2022-07-18T08:52:24;2.87;;;1.60;;
5539;SDS011;2792;52.452;9.752;2022-07-18T08:54:51;5.23;;;1.73;;
5539;SDS011;2792;52.452;9.752;2022-07-18T08:57:18;5.37;;;1.70;;
5539;SDS011;2792;52.452;9.752;2022-07-18T08:59:44;4.53;;;1.77;;
5539;SDS011;2792;52.452;9.752;2022-07-18T09:02:11;3.23;;;1.67;;
5539;SDS011;2792;52.452;9.752;2022-07-18T09:04:39;3.03;;;1.63;;
5539;SDS011;2792;52.452;9.752;2022-07-18T09:07:07;5.37;;;1.67;;
5539;SDS011;2792;52.452;9.752;2022-07-18T09:09:35;3.60;;;1.80;;
5539;SDS011;2792;52.452;9.752;2022-07-18T09:12:04;3.53;;;1.80;;
5539;SDS011;2792;52.452;9.752;2022-07-18T09:14:33;3.00;;;2.10;;
5539;SDS011;2792;52.452;9.752;2022-07-18T09:17:01;3.80;;;1.73;;
5539;SDS011;2792;52.452;9.752;2022-07-18T09:19:29;7.17;;;1.80;;
5539;SDS011;2792;52.452;9.752;2022-07-18T09:24:53;1.40;;;1.30;;
5539;SDS011;2792;52.452;9.752;2022-07-18T09:27:22;4.70;;;1.87;;
5539;SDS011;2792;52.452;9.752;2022-07-18T09:30:06;2.93;;;2.10;;
5539;SDS011;2792;52.452;9.752;2022-07-18T09:32:48;2.60;;;1.77;;
5539;SDS011;2792;52.452;9.752;2022-07-18T09:35:19;3.67;;;1.40;;
5539;SDS011;2792;52.452;9.752;2022-07-18T09:37:53;3.10;;;2.17;;
5539;SDS011;2792;52.452;9.752;2022-07-18T09:40:28;3.33;;;2.20;;
5539;SDS011;2792;52.452;9.752;2022-07-18T09:42:56;3.70;;;2.57;;
5539;SDS011;2792;52.452;9.752;2022-07-18T09:45:24;5.00;;;2.40;;
5539;SDS011;2792;52.452;9.752;2022-07-18T09:47:53;4.97;;;2.47;;
5539;SDS011;2792;52.452;9.752;2022-07-18T09:50:24;4.10;;;3.10;;
5539;SDS011;2792;52.452;9.752;2022-07-18T09:55:44;4.73;;;3.07;;
5539;SDS011;2792;52.452;9.752;2022-07-18T09:58:13;5.17;;;3.70;;
5539;SDS011;2792;52.452;9.752;2022-07-18T10:00:41;5.00;;;3.80;;
5539;SDS011;2792;52.452;9.752;2022-07-18T10:03:08;4.10;;;2.67;;
5539;SDS011;2792;52.452;9.752;2022-07-18T10:05:35;3.60;;;2.67;;
5539;SDS011;2792;52.452;9.752;2022-07-18T10:08:04;3.30;;;2.50;;
5539;SDS011;2792;52.452;9.752;2022-07-18T10:10:34;3.53;;;2.90;;
5539;SDS011;2792;52.452;9.752;2022-07-18T10:13:02;5.33;;;3.70;;
5539;SDS011;2792;52.452;9.752;2022-07-18T10:15:30;4.73;;;3.67;;
5539;SDS011;2792;52.452;9.752;2022-07-18T10:17:58;5.03;;;3.37;;
5539;SDS011;2792;52.452;9.752;2022-07-18T10:20:26;3.90;;;2.60;;
5539;SDS011;2792;52.452;9.752;2022-07-18T10:22:56;4.37;;;2.80;;
5539;SDS011;2792;52.452;9.752;2022-07-18T10:25:25;4.47;;;2.60;;
5539;SDS011;2792;52.452;9.752;2022-07-18T10:27:54;4.13;;;3.23;;
5539;SDS011;2792;52.452;9.752;2022-07-18T10:30:31;7.40;;;2.80;;
5539;SDS011;2792;52.452;9.752;2022-07-18T10:36:07;4.93;;;3.30;;
5539;SDS011;2792;52.452;9.752;2022-07-18T10:38:34;3.60;;;2.90;;
5539;SDS011;2792;52.452;9.752;2022-07-18T10:41:06;5.23;;;3.23;;
5539;SDS011;2792;52.452;9.752;2022-07-18T10:43:36;5.63;;;3.00;;
5539;SDS011;2792;52.452;9.752;2022-07-18T10:46:05;7.20;;;3.10;;
5539;SDS011;2792;52.452;9.752;2022-07-18T10:48:52;4.67;;;2.80;;
5539;SDS011;2792;52.452;9.752;2022-07-18T10:51:20;3.77;;;2.80;;
5539;SDS011;2792;52.452;9.752;2022-07-18T10:53:55;5.37;;;2.90;;
5539;SDS011;2792;52.452;9.752;2022-07-18T10:57:03;4.10;;;2.80;;
5539;SDS011;2792;52.452;9.752;2022-07-18T10:59:29;3.90;;;3.00;;
5539;SDS011;2792;52.452;9.752;2022-07-18T11:01:56;3.47;;;2.70;;
5539;SDS011;2792;52.452;9.752;2022-07-18T11:04:23;3.97;;;2.97;;
5539;SDS011;2792;52.452;9.752;2022-07-18T11:06:52;3.90;;;3.00;;
5539;SDS011;2792;52.452;9.752;2022-07-18T11:09:28;5.67;;;2.83;;
5539;SDS011;2792;52.452;9.752;2022-07-18T11:20:28;5.20;;;2.70;;
5539;SDS011;2792;52.452;9.752;2022-07-18T11:22:56;3.60;;;3.00;;
5539;SDS011;2792;52.452;9.752;2022-07-18T11:25:27;4.53;;;3.20;;
5539;SDS011;2792;52.452;9.752;2022-07-18T11:27:54;4.77;;;2.87;;
5539;SDS011;2792;52.452;9.752;2022-07-18T11:30:23;4.47;;;3.17;;
5539;SDS011;2792;52.452;9.752;2022-07-18T11:32:50;8.10;;;2.60;;
5539;SDS011;2792;52.452;9.752;2022-07-18T11:35:20;3.30;;;2.50;;
5539;SDS011;2792;52.452;9.752;2022-07-18T11:37:48;4.10;;;2.67;;
5539;SDS011;2792;52.452;9.752;2022-07-18T11:40:15;7.50;;;3.20;;
5539;SDS011;2792;52.452;9.752;2022-07-18T11:42:42;5.50;;;2.73;;
5539;SDS011;2792;52.452;9.752;2022-07-18T11:45:09;3.50;;;2.50;;
5539;SDS011;2792;52.452;9.752;2022-07-18T11:47:40;3.57;;;2.80;;
5539;SDS011;2792;52.452;9.752;2022-07-18T11:50:12;4.13;;;2.60;;
5539;SDS011;2792;52.452;9.752;2022-07-18T11:52:38;3.20;;;2.87;;
5539;SDS011;2792;52.452;9.752;2022-07-18T11:55:05;4.77;;;3.00;;
5539;SDS011;2792;52.452;9.752;2022-07-18T11:57:32;3.83;;;2.73;;
5539;SDS011;2792;52.452;9.752;2022-07-18T11:59:59;3.73;;;2.67;;
5539;SDS011;2792;52.452;9.752;2022-07-18T12:05:32;4.33;;;3.00;;
5539;SDS011;2792;52.452;9.752;2022-07-18T12:08:00;4.53;;;2.73;;
5539;SDS011;2792;52.452;9.752;2022-07-18T12:10:27;3.33;;;2.83;;
5539;SDS011;2792;52.452;9.752;2022-07-18T12:12:54;4.53;;;2.43;;
5539;SDS011;2792;52.452;9.752;2022-07-18T12:15:20;2.70;;;2.43;;
5539;SDS011;2792;52.452;9.752;2022-07-18T12:17:48;6.40;;;2.70;;
5539;SDS011;2792;52.452;9.752;2022-07-18T12:20:17;2.47;;;2.17;;
5539;SDS011;2792;52.452;9.752;2022-07-18T12:25:39;6.60;;;2.70;;
5539;SDS011;2792;52.452;9.752;2022-07-18T12:28:12;3.40;;;2.83;;
5539;SDS011;2792;52.452;9.752;2022-07-18T12:30:40;3.27;;;2.47;;
5539;SDS011;2792;52.452;9.752;2022-07-18T12:33:07;3.73;;;2.67;;
5539;SDS011;2792;52.452;9.752;2022-07-18T12:35:35;5.43;;;2.90;;
5539;SDS011;2792;52.452;9.752;2022-07-18T12:38:03;4.00;;;2.60;;
5539;SDS011;2792;52.452;9.752;2022-07-18T12:40:41;2.90;;;2.60;;
5539;SDS011;2792;52.452;9.752;2022-07-18T12:43:11;5.30;;;2.93;;
5539;SDS011;2792;52.452;9.752;2022-07-18T12:45:39;5.93;;;3.27;;
5539;SDS011;2792;52.452;9.752;2022-07-18T12:48:07;3.40;;;2.40;;
5539;SDS011;2792;52.452;9.752;2022-07-18T12:50:37;3.30;;;2.67;;
5539;SDS011;2792;52.452;9.752;2022-07-18T12:53:04;3.07;;;2.33;;
5539;SDS011;2792;52.452;9.752;2022-07-18T12:55:31;3.80;;;2.20;;
5539;SDS011;2792;52.452;9.752;2022-07-18T12:57:57;2.53;;;2.33;;
5539;SDS011;2792;52.452;9.752;2022-07-18T13:00:24;6.13;;;2.70;;
5539;SDS011;2792;52.452;9.752;2022-07-18T13:02:51;3.90;;;2.80;;
5539;SDS011;2792;52.452;9.752;2022-07-18T13:05:22;4.20;;;2.60;;
5539;SDS011;2792;52.452;9.752;2022-07-18T13:07:50;5.20;;;3.10;;
5539;SDS011;2792;52.452;9.752;2022-07-18T13:10:17;3.30;;;2.37;;
5539;SDS011;2792;52.452;9.752;2022-07-18T13:12:43;4.00;;;3.00;;
5539;SDS011;2792;52.452;9.752;2022-07-18T13:15:10;5.37;;;2.93;;
5539;SDS011;2792;52.452;9.752;2022-07-18T13:17:37;6.00;;;3.10;;
5539;SDS011;2792;52.452;9.752;2022-07-18T13:20:04;5.80;;;2.50;;
5539;SDS011;2792;52.452;9.752;2022-07-18T13:22:31;3.23;;;2.30;;
5539;SDS011;2792;52.452;9.752;2022-07-18T13:25:04;9.07;;;2.50;;
5539;SDS011;2792;52.452;9.752;2022-07-18T13:27:31;2.77;;;2.20;;
5539;SDS011;2792;52.452;9.752;2022-07-18T13:29:58;5.07;;;2.43;;
5539;SDS011;2792;52.452;9.752;2022-07-18T13:32:25;3.00;;;2.50;;
5539;SDS011;2792;52.452;9.752;2022-07-18T13:34:52;2.87;;;2.20;;
5539;SDS011;2792;52.452;9.752;2022-07-18T13:37:19;3.60;;;2.30;;
5539;SDS011;2792;52.452;9.752;2022-07-18T13:39:45;2.60;;;2.17;;
5539;SDS011;2792;52.452;9.752;2022-07-18T13:42:13;3.17;;;2.33;;
5539;SDS011;2792;52.452;9.752;2022-07-18T13:44:40;5.67;;;2.20;;
5539;SDS011;2792;52.452;9.752;2022-07-18T13:47:07;5.13;;;2.37;;
5539;SDS011;2792;52.452;9.752;2022-07-18T13:49:33;3.20;;;2.40;;
5539;SDS011;2792;52.452;9.752;2022-07-18T13:52:00;2.63;;;2.43;;
5539;SDS011;2792;52.452;9.752;2022-07-18T13:54:27;3.90;;;2.67;;
5539;SDS011;2792;52.452;9.752;2022-07-18T13:56:53;3.00;;;2.47;;
5539;SDS011;2792;52.452;9.752;2022-07-18T13:59:21;4.90;;;2.70;;
5539;SDS011;2792;52.452;9.752;2022-07-18T14:01:48;2.73;;;2.30;;
5539;SDS011;2792;52.452;9.752;2022-07-18T14:04:15;3.23;;;2.53;;
5539;SDS011;2792;52.452;9.752;2022-07-18T14:06:43;2.73;;;2.10;;
5539;SDS011;2792;52.452;9.752;2022-07-18T14:09:10;3.80;;;2.20;;
5539;SDS011;2792;52.452;9.752;2022-07-18T14:11:37;3.37;;;2.60;;
5539;SDS011;2792;52.452;9.752;2022-07-18T14:14:03;4.93;;;2.70;;
5539;SDS011;2792;52.452;9.752;2022-07-18T14:16:32;5.83;;;2.33;;
5539;SDS011;2792;52.452;9.752;2022-07-18T14:18:59;2.37;;;2.17;;
5539;SDS011;2792;52.452;9.752;2022-07-18T14:21:25;3.07;;;2.43;;
5539;SDS011;2792;52.452;9.752;2022-07-18T14:23:52;2.70;;;2.40;;
5539;SDS011;2792;52.452;9.752;2022-07-18T14:26:19;2.40;;;1.97;;
5539;SDS011;2792;52.452;9.752;2022-07-18T14:28:46;3.17;;;2.10;;
5539;SDS011;2792;52.452;9.752;2022-07-18T14:31:12;3.53;;;2.33;;
5539;SDS011;2792;52.452;9.752;2022-07-18T14:33:40;4.10;;;2.40;;
5539;SDS011;2792;52.452;9.752;2022-07-18T14:36:07;2.43;;;2.20;;
5539;SDS011;2792;52.452;9.752;2022-07-18T14:38:34;2.67;;;1.90;;
5539;SDS011;2792;52.452;9.752;2022-07-18T14:41:01;4.33;;;2.60;;
5539;SDS011;2792;52.452;9.752;2022-07-18T14:43:27;2.83;;;2.30;;
5539;SDS011;2792;52.452;9.752;2022-07-18T14:45:54;5.13;;;2.43;;
5539;SDS011;2792;52.452;9.752;2022-07-18T14:48:21;5.47;;;2.67;;
5539;SDS011;2792;52.452;9.752;2022-07-18T14:50:49;3.83;;;2.57;;
5539;SDS011;2792;52.452;9.752;2022-07-18T14:53:16;3.17;;;2.13;;
5539;SDS011;2792;52.452;9.752;2022-07-18T14:55:42;3.03;;;2.30;;
5539;SDS011;2792;52.452;9.752;2022-07-18T14:58:09;5.20;;;2.53;;
5539;SDS011;2792;52.452;9.752;2022-07-18T15:00:36;3.30;;;2.17;;
5539;SDS011;2792;52.452;9.752;2022-07-18T15:03:02;3.10;;;2.50;;
5539;SDS011;2792;52.452;9.752;2022-07-18T15:05:29;3.97;;;2.23;;
5539;SDS011;2792;52.452;9.752;2022-07-18T15:07:57;3.10;;;2.37;;
5539;SDS011;2792;52.452;9.752;2022-07-18T15:10:24;2.30;;;2.10;;
5539;SDS011;2792;52.452;9.752;2022-07-18T15:12:50;3.73;;;2.60;;
5539;SDS011;2792;52.452;9.752;2022-07-18T15:15:17;5.50;;;2.47;;
5539;SDS011;2792;52.452;9.752;2022-07-18T15:17:43;2.70;;;2.20;;
5539;SDS011;2792;52.452;9.752;2022-07-18T15:20:10;2.43;;;2.20;;
5539;SDS011;2792;52.452;9.752;2022-07-18T15:22:37;6.10;;;2.53;;
5539;SDS011;2792;52.452;9.752;2022-07-18T15:25:06;2.67;;;2.13;;
5539;SDS011;2792;52.452;9.752;2022-07-18T15:27:33;2.23;;;2.03;;
5539;SDS011;2792;52.452;9.752;2022-07-18T15:30:00;3.97;;;2.47;;
5539;SDS011;2792;52.452;9.752;2022-07-18T15:32:27;5.53;;;2.40;;
5539;SDS011;2792;52.452;9.752;2022-07-18T15:34:54;2.60;;;2.20;;
5539;SDS011;2792;52.452;9.752;2022-07-18T15:37:20;2.80;;;2.30;;
5539;SDS011;2792;52.452;9.752;2022-07-18T15:39:47;2.93;;;2.10;;